Terminal Aerodrome Forecast
Issued by NWS

Home | Current Version | Previous Version | Text Only | Print | Product List | Glossary On
Versions: 1 2 3 4 5 6 7 8 9 10 11 12
000
FTUS42 TJSJ 241729
TAFJBQ
TAF
TJBQ 241729Z 2418/2518 08013KT P6SM VCTS SCT020CB BKN050
     FM242330 10006KT P6SM SCT030 SCT070
     FM250300 12003KT P6SM FEW060
     FM251450 07012KT P6SM SCT030=

USA.gov is the U.S. government's official web portal to all federal, state and local government web resources and services.